Terminal Aerodrome Forecast
Issued by NWS Louisville, KY

Home | Current Version | Previous Version | Text Only | Print | Product List | Glossary On
Versions: 1 2 3 4 5 6 7 8 9 10 11 12
414
FTUS43 KLMK 151123
TAFSDF
TAF
KSDF 151123Z 1512/1618 27007KT P6SM BKN035
     FM151700 26011G20KT P6SM BKN040
     FM160200 22006KT P6SM SCT040
     FM161400 20010KT P6SM FEW250=

USA.gov is the U.S. government's official web portal to all federal, state and local government web resources and services.